Simona X — SV8518 — position and weather

sailwx.info

Track history (hours):
 
Tides and Currents Weather Stations Pressure Air Temp Water Temp Dewpoint Dewpoint Depression Visibility Wind Speed Wind Dir Waves Ship Positions

Simona X

Last reported at 2017-Oct-20 11:47 UTC. Time now 2017-Nov-23 15:10 UTC.
Position N 39°57' E 023°60'.
Warning: this ship's position is 34 days out of date.

Length 16 m.

Type: Fishing. MMSI: 239409000.

Date/timePositionNaut miles runAvg speedWind from/ knotsBaromVisibWave heightAir tempDewpointWater temp
2017-Oct-20 11:47N 39°57' E 023°60'2 7.0
2017-Oct-20 11:30N 39°57' E 024°02'4 7.2
2017-Oct-20 11:01N 39°57' E 024°07'4 7.1
2017-Oct-20 10:30N 39°58' E 024°11'4 7.0
2017-Oct-20 09:59N 39°58' E 024°16'4 6.8
2017-Oct-20 09:28N 39°58' E 024°21'3 6.8
2017-Oct-20 09:01N 39°59' E 024°25'4 7.5
2017-Oct-20 08:30N 39°59' E 024°29'4 7.4
2017-Oct-20 08:01N 40°00' E 024°34'4 7.3
2017-Oct-20 07:29N 40°01' E 024°39'4 7.4
2017-Oct-20 06:59N 40°01' E 024°44'4 7.6
2017-Oct-20 06:31N 40°02' E 024°48'4 7.7
2017-Oct-20 05:58N 40°02' E 024°54'11 7.5
2017-Oct-20 04:30N 40°03' E 025°08'3 5.8
2017-Oct-20 03:55N 40°04' E 025°04'3 7.1
2017-Oct-20 03:30N 40°05' E 025°00'4 7.4
2017-Oct-20 02:58N 40°04' E 024°55'4 7.0
2017-Oct-20 02:24N 40°04' E 024°50'4 7.5
2017-Oct-20 01:55N 40°04' E 024°46'3 7.5
2017-Oct-20 01:30N 40°05' E 024°41'4 7.6
2017-Oct-20 01:00N 40°05' E 024°37'9 7.8
2017-Oct-19 23:52N 40°09' E 024°26'3 8.1
2017-Oct-19 23:30N 40°12' E 024°25'4 8.3
2017-Oct-19 23:00N 40°14' E 024°21'4 8.2
2017-Oct-19 22:30N 40°18' E 024°17'4 7.9
2017-Oct-19 22:00N 40°21' E 024°14'4 7.6
2017-Oct-19 21:30N 40°23' E 024°10'4 7.5
2017-Oct-19 21:00N 40°26' E 024°07'4 7.6
2017-Oct-19 20:30N 40°28' E 024°03'4 7.6
2017-Oct-19 20:00N 40°30' E 023°59'3 7.0
2017-Oct-19 19:30N 40°30' E 023°54'1 1.0
2017-Oct-19 19:00N 40°31' E 023°55'0 0.3
2017-Oct-19 18:30N 40°30' E 023°55'0 0.3
2017-Oct-19 17:58N 40°30' E 023°54'0 0.4
2017-Oct-19 17:29N 40°31' E 023°55'0 0.3
2017-Oct-19 16:59N 40°31' E 023°55'0 0.3
2017-Oct-19 16:23N 40°31' E 023°54'1 3.7
2017-Oct-19 16:00N 40°29' E 023°54'4 7.2
2017-Oct-19 15:30N 40°26' E 023°54'2 4.1
2017-Oct-19 15:00N 40°24' E 023°54'0 0.0
2017-Oct-19 14:30N 40°24' E 023°54'0 0.0
2017-Oct-19 14:00N 40°24' E 023°54'0 0.0
2017-Oct-19 13:30N 40°24' E 023°54'0 0.0
2017-Oct-19 13:00N 40°24' E 023°54'0 0.0
2017-Oct-19 12:30N 40°24' E 023°54'0 0.0
2017-Oct-19 12:00N 40°24' E 023°54'0 0.0
2017-Oct-19 11:30N 40°24' E 023°54'0 0.0
2017-Oct-19 11:00N 40°24' E 023°54'0 0.0
2017-Oct-19 10:30N 40°24' E 023°54'0 0.0
2017-Oct-19 10:00N 40°24' E 023°54'0 0.0
2017-Oct-19 09:30N 40°24' E 023°54'0 0.0
2017-Oct-19 09:00N 40°24' E 023°54'0 0.0
2017-Oct-19 07:30N 40°24' E 023°54'0 0.0
2017-Oct-19 07:00N 40°24' E 023°54'0 0.0
2017-Oct-19 06:09N 40°24' E 023°54'0 0.0
2017-Oct-19 06:00N 40°24' E 023°54'0 0.0
2017-Oct-19 05:30N 40°24' E 023°54'0 0.0
2017-Oct-19 05:00N 40°24' E 023°54'0 0.0
2017-Oct-19 04:30N 40°24' E 023°54'0 0.0
2017-Oct-19 04:00N 40°24' E 023°54'0 0.0
2017-Oct-19 03:30N 40°24' E 023°54'0 0.0
2017-Oct-19 03:00N 40°24' E 023°54'0 0.0
2017-Oct-19 02:30N 40°24' E 023°54'0 0.0
2017-Oct-19 02:00N 40°24' E 023°54'0 0.0
2017-Oct-19 01:30N 40°24' E 023°54'0 0.0
2017-Oct-18 23:07N 40°24' E 023°54'0 0.0
2017-Oct-18 22:52N 40°24' E 023°54'0 0.0
2017-Oct-18 22:27N 40°24' E 023°54'0 0.0
2017-Oct-18 21:41N 40°24' E 023°54'0 0.0
2017-Oct-18 21:30N 40°24' E 023°54'0 0.3
2017-Oct-18 21:00N 40°24' E 023°53'3 5.3
2017-Oct-18 20:25N 40°27' E 023°53'3 5.1
2017-Oct-18 19:45N 40°30' E 023°55'0 0.3
2017-Oct-18 19:27N 40°30' E 023°55'0 0.3
2017-Oct-18 18:40N 40°30' E 023°55'0 0.2
2017-Oct-18 18:25N 40°30' E 023°55'15 3.3
2017-Oct-18 13:56N 40°39' E 024°10'3 6.9
2017-Oct-18 13:30N 40°41' E 024°12'3 7.0
2017-Oct-18 13:00N 40°44' E 024°15'4 7.0
2017-Oct-18 12:30N 40°47' E 024°18'4 7.2
2017-Oct-18 12:00N 40°50' E 024°21'2 3.4
2017-Oct-18 11:30N 40°51' E 024°19'0 0.0
2017-Oct-18 11:00N 40°51' E 024°19'0 0.0
2017-Oct-18 10:30N 40°51' E 024°19'0 0.0
2017-Oct-18 10:00N 40°51' E 024°19'0 0.0
2017-Oct-18 09:30N 40°51' E 024°19'0 0.0
2017-Oct-18 09:00N 40°51' E 024°19'0 0.0
2017-Oct-18 08:30N 40°51' E 024°19'0 0.0
2017-Oct-18 08:00N 40°51' E 024°19'0 0.0
2017-Oct-18 07:30N 40°51' E 024°19'0 0.0
2017-Oct-18 07:00N 40°51' E 024°19'0 0.0
2017-Oct-18 06:30N 40°51' E 024°19'0 0.0
2017-Oct-18 06:00N 40°51' E 024°19'0 0.0
2017-Oct-18 05:30N 40°51' E 024°19'0 0.0
2017-Oct-18 05:00N 40°51' E 024°19'0 0.0
2017-Oct-18 04:30N 40°51' E 024°19'0 0.0
2017-Oct-18 04:00N 40°51' E 024°19'0 0.0
2017-Oct-18 03:30N 40°51' E 024°19'0 0.0
2017-Oct-18 03:00N 40°51' E 024°19'0 0.0
2017-Oct-18 02:30N 40°51' E 024°19'0 0.0
2017-Oct-18 02:00N 40°51' E 024°19'0 0.0
2017-Oct-18 01:30N 40°51' E 024°19'2 3.6
2017-Oct-18 01:00N 40°50' E 024°21'4 7.4
2017-Oct-18 00:30N 40°48' E 024°25'1 1.2
2017-Oct-18 00:00N 40°48' E 024°26'1 1.1
2017-Oct-17 23:30N 40°48' E 024°25'0 0.3
2017-Oct-17 23:00N 40°48' E 024°25'0 0.3
2017-Oct-17 22:30N 40°48' E 024°25'0 0.2
2017-Oct-17 22:00N 40°48' E 024°26'0 0.4
2017-Oct-17 21:30N 40°48' E 024°26'1 2.7
2017-Oct-17 21:00N 40°47' E 024°27'3 5.5
2017-Oct-17 20:30N 40°46' E 024°24'3 6.9
2017-Oct-17 20:00N 40°44' E 024°20'3 6.0
2017-Oct-17 19:30N 40°43' E 024°17'3 7.0
2017-Oct-17 19:00N 40°42' E 024°12'4 7.8
2017-Oct-17 18:30N 40°40' E 024°08'1 2.8
2017-Oct-17 18:00N 40°38' E 024°08'0 0.4
2017-Oct-17 17:28N 40°38' E 024°08'1 1.2
2017-Oct-17 17:00N 40°38' E 024°08'1 1.6
2017-Oct-17 16:30N 40°38' E 024°09'2 4.4
2017-Oct-17 16:00N 40°40' E 024°10'4 7.1
2017-Oct-17 15:30N 40°43' E 024°13'4 7.3
2017-Oct-17 15:00N 40°46' E 024°16'4 7.5
2017-Oct-17 14:30N 40°49' E 024°20'2 4.9
2017-Oct-17 14:00N 40°51' E 024°19'0 0.0
2017-Oct-17 13:30N 40°51' E 024°19'0 0.0
2017-Oct-17 13:00N 40°51' E 024°19'0 0.0
2017-Oct-17 12:30N 40°51' E 024°19'0 0.0
2017-Oct-17 12:00N 40°51' E 024°19'0 0.0
2017-Oct-17 11:30N 40°51' E 024°19'0 0.0
2017-Oct-17 11:00N 40°51' E 024°19'0 0.0
2017-Oct-17 10:30N 40°51' E 024°19'0 0.0
2017-Oct-17 10:00N 40°51' E 024°19'0 0.0
2017-Oct-17 09:30N 40°51' E 024°19'0 0.0
2017-Oct-17 09:00N 40°51' E 024°19'0 0.0
2017-Oct-17 08:30N 40°51' E 024°19'0 0.0
2017-Oct-17 08:00N 40°51' E 024°19'0 0.0
2017-Oct-17 07:30N 40°51' E 024°19'0 0.0
2017-Oct-17 07:00N 40°51' E 024°19'0 0.0
2017-Oct-17 06:30N 40°51' E 024°19'0 0.0
2017-Oct-17 06:00N 40°51' E 024°19'0 0.0
2017-Oct-17 05:30N 40°51' E 024°19'0 0.0
2017-Oct-17 05:00N 40°51' E 024°19'0 0.0
2017-Oct-17 04:30N 40°51' E 024°19'0 0.0
2017-Oct-17 04:00N 40°51' E 024°19'0 0.0
2017-Oct-17 03:30N 40°51' E 024°19'0 0.0
2017-Oct-17 03:00N 40°51' E 024°19'0 0.0
2017-Oct-17 02:30N 40°51' E 024°19'0 0.0
2017-Oct-17 02:00N 40°51' E 024°19'0 0.0
2017-Oct-17 01:30N 40°51' E 024°19'0 0.0
2017-Oct-17 01:00N 40°51' E 024°19'0 0.0
2017-Oct-17 00:30N 40°51' E 024°19'0 0.0
2017-Oct-17 00:01N 40°51' E 024°19'0 0.0
2017-Oct-16 23:30N 40°51' E 024°19'0 0.0
2017-Oct-16 23:00N 40°51' E 024°19'0 0.0
2017-Oct-16 22:30N 40°51' E 024°19'0 0.0
2017-Oct-16 22:00N 40°51' E 024°19'3 5.0
2017-Oct-16 21:30N 40°48' E 024°20'4 7.8
2017-Oct-16 21:00N 40°46' E 024°16'4 7.5
2017-Oct-16 20:30N 40°43' E 024°13'4 7.8
2017-Oct-16 20:00N 40°40' E 024°09'1 1.1
2017-Oct-16 19:30N 40°40' E 024°09'0 0.4
2017-Oct-16 18:50N 40°39' E 024°09'0 0.5
2017-Oct-16 18:30N 40°39' E 024°09'0 0.1
2017-Oct-16 17:20N 40°39' E 024°08'0 0.2
2017-Oct-16 17:00N 40°39' E 024°09'2 4.4
2017-Oct-16 16:30N 40°40' E 024°11'3 6.3
2017-Oct-16 15:58N 40°42' E 024°14'3 6.9
2017-Oct-16 15:30N 40°45' E 024°16'3 7.0
2017-Oct-16 15:00N 40°48' E 024°19'3 5.7
2017-Oct-16 14:30N 40°51' E 024°19'1 0.5
2017-Oct-16 13:26N 40°51' E 024°19'0 0.0
2017-Oct-16 12:45N 40°51' E 024°19'0 0.0
2017-Oct-16 12:30N 40°51' E 024°19'0 0.0
2017-Oct-16 12:00N 40°51' E 024°19'0 0.0
2017-Oct-16 11:07N 40°51' E 024°19'0 0.0
2017-Oct-16 10:53N 40°51' E 024°19'0 0.0
2017-Oct-16 10:30N 40°51' E 024°19'0 0.0
2017-Oct-16 09:38N 40°51' E 024°19'0 0.0
2017-Oct-16 09:25N 40°51' E 024°19'0 0.0
2017-Oct-16 08:40N 40°51' E 024°19'0 0.0
2017-Oct-16 08:30N 40°51' E 024°19'0 0.0
2017-Oct-16 08:00N 40°51' E 024°19'0 0.0
2017-Oct-16 04:50N 40°51' E 024°19'0 0.0
2017-Oct-16 04:30N 40°51' E 024°19'0 0.0
2017-Oct-16 03:59N 40°51' E 024°19'0 0.0
2017-Oct-16 03:30N 40°51' E 024°19'0 0.0
2017-Oct-16 03:00N 40°51' E 024°19'0 0.0
2017-Oct-16 02:29N 40°51' E 024°19'0 0.0
2017-Oct-16 02:00N 40°51' E 024°19'0 0.0
2017-Oct-16 01:28N 40°51' E 024°19'0 0.0
2017-Oct-16 01:00N 40°51' E 024°19'0 0.0
2017-Oct-16 00:30N 40°51' E 024°19'0 0.0
2017-Oct-16 00:00N 40°51' E 024°19'0 0.0
2017-Oct-15 23:25N 40°51' E 024°19'0 0.0
2017-Oct-15 22:10N 40°51' E 024°19'0 0.0
2017-Oct-15 22:00N 40°51' E 024°19'2 3.8
2017-Oct-15 21:30N 40°50' E 024°21'4 7.5
2017-Oct-15 21:00N 40°47' E 024°17'4 7.8
2017-Oct-15 20:30N 40°44' E 024°14'3 6.6
2017-Oct-15 19:59N 40°41' E 024°11'0 0.4
2017-Oct-15 19:30N 40°41' E 024°11'0 0.3
2017-Oct-15 18:58N 40°41' E 024°11'0 0.6
2017-Oct-15 18:30N 40°41' E 024°11'0 0.5
2017-Oct-15 17:59N 40°41' E 024°10'0 0.3
2017-Oct-15 17:30N 40°41' E 024°11'0 0.2
2017-Oct-15 16:57N 40°41' E 024°11'0 0.7
2017-Oct-15 16:30N 40°41' E 024°11'2 4.8
2017-Oct-15 16:00N 40°43' E 024°11'3 7.0
2017-Oct-15 15:30N 40°45' E 024°15'4 7.1
2017-Oct-15 15:00N 40°47' E 024°18'4 3.7
2017-Oct-15 14:00N 40°51' E 024°19'0 0.0
2017-Oct-15 13:30N 40°51' E 024°19'0 0.0
2017-Oct-15 13:00N 40°51' E 024°19'0 0.0
2017-Oct-15 12:30N 40°51' E 024°19'0 0.0
2017-Oct-15 12:00N 40°51' E 024°19'0 0.0
2017-Oct-15 11:30N 40°51' E 024°19'0 0.0
2017-Oct-15 11:00N 40°51' E 024°19'0 0.0
2017-Oct-15 10:30N 40°51' E 024°19'0 0.0
2017-Oct-15 10:00N 40°51' E 024°19'0 0.0
2017-Oct-15 09:30N 40°51' E 024°19'0 0.0
2017-Oct-15 09:00N 40°51' E 024°19'0 0.0
2017-Oct-15 08:30N 40°51' E 024°19'0 0.0
2017-Oct-15 08:00N 40°51' E 024°19'0 0.0
2017-Oct-15 07:30N 40°51' E 024°19'0 0.0
2017-Oct-15 07:00N 40°51' E 024°19'0 0.0
2017-Oct-15 06:30N 40°51' E 024°19'0 0.0
2017-Oct-15 06:00N 40°51' E 024°19'0 0.0
2017-Oct-15 05:30N 40°51' E 024°19'0 0.0
2017-Oct-15 05:00N 40°51' E 024°19'0 0.0
2017-Oct-15 04:30N 40°51' E 024°19'0 0.0
2017-Oct-15 04:00N 40°51' E 024°19'0 0.0
2017-Oct-15 03:30N 40°51' E 024°19'0 0.0
2017-Oct-15 03:00N 40°51' E 024°19'0 0.0
2017-Oct-15 02:30N 40°51' E 024°19'0 0.0
2017-Oct-15 02:00N 40°51' E 024°19'0 0.0
2017-Oct-15 01:30N 40°51' E 024°19'0 0.0
2017-Oct-15 01:00N 40°51' E 024°19'0 0.0
2017-Oct-15 00:30N 40°51' E 024°19'0 0.0
2017-Oct-15 00:00N 40°51' E 024°19'0 0.0
2017-Oct-14 23:30N 40°51' E 024°19'0 0.0
2017-Oct-14 23:00N 40°51' E 024°19'0 0.0
2017-Oct-14 22:30N 40°51' E 024°19'0 0.0
2017-Oct-14 22:00N 40°51' E 024°19'0 0.0
2017-Oct-14 21:30N 40°51' E 024°19'0 0.0
2017-Oct-14 21:00N 40°51' E 024°19'0 0.0
2017-Oct-14 20:30N 40°51' E 024°19'0 0.0
2017-Oct-14 20:00N 40°51' E 024°19'0 0.0
2017-Oct-14 19:30N 40°51' E 024°19'0 0.0
2017-Oct-14 19:00N 40°51' E 024°19'0 0.0
2017-Oct-14 18:30N 40°51' E 024°19'0 0.0
2017-Oct-14 18:00N 40°51' E 024°19'0 0.0
2017-Oct-14 17:30N 40°51' E 024°19'0 0.0
2017-Oct-14 17:00N 40°51' E 024°19'0 0.0
2017-Oct-14 16:30N 40°51' E 024°19'0 0.0
2017-Oct-14 16:00N 40°51' E 024°19'0 0.0
2017-Oct-14 15:30N 40°51' E 024°19'0 0.0
2017-Oct-14 15:00N 40°51' E 024°19'0 0.0
2017-Oct-14 14:30N 40°51' E 024°19'0 0.0
2017-Oct-14 14:00N 40°51' E 024°19'0 0.0
2017-Oct-14 13:30N 40°51' E 024°19'0 0.0
2017-Oct-14 13:00N 40°51' E 024°19'0 0.0
2017-Oct-14 12:30N 40°51' E 024°19'0 0.0
2017-Oct-14 12:00N 40°51' E 024°19'0 0.0
2017-Oct-14 11:30N 40°51' E 024°19'0 0.0
2017-Oct-14 11:00N 40°51' E 024°19'0 0.0
2017-Oct-14 10:30N 40°51' E 024°19'0 0.0
2017-Oct-14 10:00N 40°51' E 024°19'0 0.0
2017-Oct-14 09:30N 40°51' E 024°19'0 0.0
2017-Oct-14 09:00N 40°51' E 024°19'0 0.0
2017-Oct-14 08:30N 40°51' E 024°19'0 0.0
2017-Oct-14 08:00N 40°51' E 024°19'0 0.0
2017-Oct-14 07:30N 40°51' E 024°19'0 0.0
2017-Oct-14 07:00N 40°51' E 024°19'0 0.0
2017-Oct-14 06:30N 40°51' E 024°19'0 0.0
2017-Oct-14 06:00N 40°51' E 024°19'0 0.0
2017-Oct-14 05:30N 40°51' E 024°19'0 0.0
2017-Oct-14 05:00N 40°51' E 024°19'0 0.0
2017-Oct-14 04:30N 40°51' E 024°19'0 0.0
2017-Oct-14 04:00N 40°51' E 024°19'0 0.0
2017-Oct-14 03:30N 40°51' E 024°19'0 0.0
2017-Oct-14 03:00N 40°51' E 024°19'0 0.0
2017-Oct-14 02:30N 40°51' E 024°19'0 0.0
2017-Oct-14 02:00N 40°51' E 024°19'0 0.0
2017-Oct-14 01:30N 40°51' E 024°19'0 0.0
2017-Oct-14 01:00N 40°51' E 024°19'0 0.0
2017-Oct-14 00:30N 40°51' E 024°19'0 0.0
2017-Oct-14 00:00N 40°51' E 024°19'0 0.0
2017-Oct-13 23:30N 40°51' E 024°19'0 0.0
2017-Oct-13 23:00N 40°51' E 024°19'0 0.0
2017-Oct-13 22:30N 40°51' E 024°19'0 0.0
2017-Oct-13 22:00N 40°51' E 024°19'0 0.0
2017-Oct-13 21:30N 40°51' E 024°19'0 0.1
2017-Oct-13 21:00N 40°51' E 024°19'2 4.5
2017-Oct-13 20:29N 40°49' E 024°20'4 8.1
2017-Oct-13 20:00N 40°46' E 024°16'4 8.1
2017-Oct-13 19:30N 40°44' E 024°12'0 0.5
2017-Oct-13 19:00N 40°44' E 024°11'0 0.3
2017-Oct-13 18:30N 40°44' E 024°11'0 0.8
2017-Oct-13 18:00N 40°43' E 024°11'0 0.7
2017-Oct-13 17:30N 40°43' E 024°11'0 0.5
2017-Oct-13 17:00N 40°43' E 024°11'0 0.5
2017-Oct-13 16:30N 40°43' E 024°11'2 2.9
2017-Oct-13 15:47N 40°45' E 024°13'2 6.8
2017-Oct-13 15:30N 40°46' E 024°15'3 6.7
2017-Oct-13 15:00N 40°48' E 024°19'3 5.1
2017-Oct-13 14:30N 40°51' E 024°19'1 1.0
2017-Oct-13 14:00N 40°51' E 024°19'0 0.0
2017-Oct-13 13:30N 40°51' E 024°19'0 0.0
2017-Oct-13 13:00N 40°51' E 024°19'0 0.0
2017-Oct-13 12:30N 40°51' E 024°19'0 0.0
2017-Oct-13 12:00N 40°51' E 024°19'0 0.0
2017-Oct-13 11:30N 40°51' E 024°19'0 0.0
2017-Oct-13 11:00N 40°51' E 024°19'0 0.0
2017-Oct-13 10:30N 40°51' E 024°19'0 0.0
2017-Oct-13 10:00N 40°51' E 024°19'0 0.0
2017-Oct-13 09:30N 40°51' E 024°19'0 0.0
2017-Oct-13 09:00N 40°51' E 024°19'0 0.0
2017-Oct-13 08:30N 40°51' E 024°19'0 0.0
2017-Oct-13 08:00N 40°51' E 024°19'0 0.0
2017-Oct-13 07:30N 40°51' E 024°19'0 0.0
2017-Oct-13 07:00N 40°51' E 024°19'0 0.0
2017-Oct-13 06:30N 40°51' E 024°19'0 0.0
2017-Oct-13 06:00N 40°51' E 024°19'0 0.0
2017-Oct-13 05:30N 40°51' E 024°19'0 0.0
2017-Oct-13 05:00N 40°51' E 024°19'0 0.0
2017-Oct-13 04:30N 40°51' E 024°19'0 0.0
2017-Oct-13 04:00N 40°51' E 024°19'0 0.0
2017-Oct-13 03:30N 40°51' E 024°19'0 0.0
2017-Oct-13 03:00N 40°51' E 024°19'0 0.0
2017-Oct-13 02:30N 40°51' E 024°19'0 0.0
2017-Oct-13 02:00N 40°51' E 024°19'0 0.0
2017-Oct-13 01:30N 40°51' E 024°19'0 0.0
2017-Oct-13 01:00N 40°51' E 024°19'0 0.0
2017-Oct-13 00:30N 40°51' E 024°19'0 0.0
2017-Oct-13 00:00N 40°51' E 024°19'0 0.0
2017-Oct-12 23:30N 40°51' E 024°19'0 0.0
2017-Oct-12 23:00N 40°51' E 024°19'0 0.0
2017-Oct-12 22:30N 40°51' E 024°19'0 0.9
2017-Oct-12 21:59N 40°51' E 024°19'3 5.5
2017-Oct-12 21:30N 40°48' E 024°19'4 8.0
2017-Oct-12 21:00N 40°46' E 024°15'4 7.7
2017-Oct-12 20:29N 40°43' E 024°11'3 5.6
2017-Oct-12 20:00N 40°41' E 024°08'0 0.2
2017-Oct-12 19:30N 40°41' E 024°08'0 0.4
2017-Oct-12 19:00N 40°41' E 024°08'0 0.5
2017-Oct-12 18:30N 40°41' E 024°08'0 0.7
2017-Oct-12 17:57N 40°41' E 024°09'0 0.2
2017-Oct-12 17:29N 40°41' E 024°08'1 1.5
2017-Oct-12 17:00N 40°42' E 024°08'2 4.6
2017-Oct-12 16:30N 40°44' E 024°09'2 4.0
2017-Oct-12 16:00N 40°44' E 024°12'3 6.8
2017-Oct-12 15:30N 40°46' E 024°16'3 6.6
2017-Oct-12 15:00N 40°48' E 024°19'2 4.8
2017-Oct-12 14:30N 40°51' E 024°19'0 0.7
2017-Oct-12 14:00N 40°51' E 024°19'0 0.0
2017-Oct-12 13:30N 40°51' E 024°19'0 0.0
2017-Oct-12 13:00N 40°51' E 024°19'0 0.0
2017-Oct-12 12:30N 40°51' E 024°19'0 0.0
2017-Oct-12 12:00N 40°51' E 024°19'0 0.0
2017-Oct-12 11:30N 40°51' E 024°19'0 0.0
2017-Oct-12 11:00N 40°51' E 024°19'0 0.0
2017-Oct-12 10:30N 40°51' E 024°19'0 0.0
2017-Oct-12 10:00N 40°51' E 024°19'0 0.0
2017-Oct-12 09:30N 40°51' E 024°19'0 0.0
2017-Oct-12 09:00N 40°51' E 024°19'0 0.0
2017-Oct-12 08:30N 40°51' E 024°19'0 0.0
2017-Oct-12 08:00N 40°51' E 024°19'0 0.0
2017-Oct-12 07:30N 40°51' E 024°19'0 0.0
2017-Oct-12 07:00N 40°51' E 024°19'0 0.0
2017-Oct-12 06:30N 40°51' E 024°19'0 0.0
2017-Oct-12 06:00N 40°51' E 024°19'0 0.0
2017-Oct-12 05:30N 40°51' E 024°19'0 0.0
2017-Oct-12 05:00N 40°51' E 024°19'0 0.0
2017-Oct-12 04:30N 40°51' E 024°19'0 0.0
2017-Oct-12 04:00N 40°51' E 024°19'0 0.0
2017-Oct-12 03:30N 40°51' E 024°19'0 0.0
2017-Oct-12 03:00N 40°51' E 024°19'0 0.0
2017-Oct-12 02:30N 40°51' E 024°19'0 0.0
2017-Oct-12 02:00N 40°51' E 024°19'0 0.0
2017-Oct-12 01:30N 40°51' E 024°19'0 0.0
2017-Oct-12 01:00N 40°51' E 024°19'0 0.0
2017-Oct-12 00:30N 40°51' E 024°19'0 0.2
2017-Oct-12 00:00N 40°51' E 024°19'2 5.0
2017-Oct-11 23:30N 40°48' E 024°19'4 7.5
2017-Oct-11 23:00N 40°46' E 024°15'4 7.5
2017-Oct-11 22:30N 40°44' E 024°12'4 7.0
2017-Oct-11 22:00N 40°41' E 024°08'3 5.2
2017-Oct-11 21:29N 40°39' E 024°06'0 0.3
2017-Oct-11 20:57N 40°39' E 024°06'0 0.3
2017-Oct-11 20:30N 40°40' E 024°06'0 0.4
2017-Oct-11 19:55N 40°40' E 024°06'0 0.2
2017-Oct-11 18:36N 40°40' E 024°06'0 0.3
2017-Oct-11 18:14N 40°40' E 024°06'4 5.0
2017-Oct-11 17:22N 40°42' E 024°11'2 4.5
2017-Oct-11 16:58N 40°42' E 024°13'10 0.6
2017-Oct-11 00:00N 40°51' E 024°19'3 6.9
2017-Oct-10 23:30N 40°49' E 024°23'2 4.9
2017-Oct-10 23:00N 40°46' E 024°23'3 5.8
2017-Oct-10 22:30N 40°44' E 024°22'1 1.5
2017-Oct-10 22:00N 40°43' E 024°21'1 1.9
2017-Oct-10 21:30N 40°42' E 024°20'1 2.4
2017-Oct-10 21:00N 40°43' E 024°19'4 7.3
2017-Oct-10 20:30N 40°47' E 024°20'3 5.6
2017-Oct-10 20:00N 40°45' E 024°17'2 4.8
2017-Oct-10 19:30N 40°43' E 024°15'0 0.3
2017-Oct-10 19:00N 40°43' E 024°15'0 0.2
2017-Oct-10 18:30N 40°43' E 024°15'0 0.3
2017-Oct-10 18:00N 40°43' E 024°15'0 0.6
2017-Oct-10 17:30N 40°43' E 024°15'0 0.4
2017-Oct-10 17:00N 40°43' E 024°15'0 0.1
2017-Oct-10 16:30N 40°43' E 024°15'0 0.4
2017-Oct-10 16:00N 40°43' E 024°15'3 6.0
2017-Oct-10 15:30N 40°45' E 024°18'4 7.1
2017-Oct-10 15:00N 40°48' E 024°20'3 3.0
2017-Oct-10 14:00N 40°51' E 024°19'0 0.0
2017-Oct-10 13:30N 40°51' E 024°19'0 0.0
2017-Oct-10 13:00N 40°51' E 024°19'0 0.0
2017-Oct-10 12:30N 40°51' E 024°19'0 0.0
2017-Oct-10 12:00N 40°51' E 024°19'  
Track history (hours):
 
Tides and Currents Weather Stations Pressure Air Temp Water Temp Dewpoint Dewpoint Depression Visibility Wind Speed Wind Dir Waves Ship Positions

Simona X

Last reported at 2017-Oct-20 11:47 UTC. Time now 2017-Nov-23 15:10 UTC.
Position N 39°57' E 023°60'.
Warning: this ship's position is 34 days out of date.

Length 16 m.

Type: Fishing. MMSI: 239409000.

Date/timePositionNaut miles runAvg speedWind from/ knotsBaromVisibWave heightAir tempDewpointWater temp
2017-Oct-20 11:47N 39°57' E 023°60'2 7.0
2017-Oct-20 11:30N 39°57' E 024°02'4 7.2
2017-Oct-20 11:01N 39°57' E 024°07'4 7.1
2017-Oct-20 10:30N 39°58' E 024°11'4 7.0
2017-Oct-20 09:59N 39°58' E 024°16'4 6.8
2017-Oct-20 09:28N 39°58' E 024°21'3 6.8
2017-Oct-20 09:01N 39°59' E 024°25'4 7.5
2017-Oct-20 08:30N 39°59' E 024°29'4 7.4
2017-Oct-20 08:01N 40°00' E 024°34'4 7.3
2017-Oct-20 07:29N 40°01' E 024°39'4 7.4
2017-Oct-20 06:59N 40°01' E 024°44'4 7.6
2017-Oct-20 06:31N 40°02' E 024°48'4 7.7
2017-Oct-20 05:58N 40°02' E 024°54'11 7.5
2017-Oct-20 04:30N 40°03' E 025°08'3 5.8
2017-Oct-20 03:55N 40°04' E 025°04'3 7.1
2017-Oct-20 03:30N 40°05' E 025°00'4 7.4
2017-Oct-20 02:58N 40°04' E 024°55'4 7.0
2017-Oct-20 02:24N 40°04' E 024°50'4 7.5
2017-Oct-20 01:55N 40°04' E 024°46'3 7.5
2017-Oct-20 01:30N 40°05' E 024°41'4 7.6
2017-Oct-20 01:00N 40°05' E 024°37'9 7.8
2017-Oct-19 23:52N 40°09' E 024°26'3 8.1
2017-Oct-19 23:30N 40°12' E 024°25'4 8.3
2017-Oct-19 23:00N 40°14' E 024°21'4 8.2
2017-Oct-19 22:30N 40°18' E 024°17'4 7.9
2017-Oct-19 22:00N 40°21' E 024°14'4 7.6
2017-Oct-19 21:30N 40°23' E 024°10'4 7.5
2017-Oct-19 21:00N 40°26' E 024°07'4 7.6
2017-Oct-19 20:30N 40°28' E 024°03'4 7.6
2017-Oct-19 20:00N 40°30' E 023°59'3 7.0
2017-Oct-19 19:30N 40°30' E 023°54'1 1.0
2017-Oct-19 19:00N 40°31' E 023°55'0 0.3
2017-Oct-19 18:30N 40°30' E 023°55'0 0.3
2017-Oct-19 17:58N 40°30' E 023°54'0 0.4
2017-Oct-19 17:29N 40°31' E 023°55'0 0.3
2017-Oct-19 16:59N 40°31' E 023°55'0 0.3
2017-Oct-19 16:23N 40°31' E 023°54'1 3.7
2017-Oct-19 16:00N 40°29' E 023°54'4 7.2
2017-Oct-19 15:30N 40°26' E 023°54'2 4.1
2017-Oct-19 15:00N 40°24' E 023°54'0 0.0
2017-Oct-19 14:30N 40°24' E 023°54'0 0.0
2017-Oct-19 14:00N 40°24' E 023°54'0 0.0
2017-Oct-19 13:30N 40°24' E 023°54'0 0.0
2017-Oct-19 13:00N 40°24' E 023°54'0 0.0
2017-Oct-19 12:30N 40°24' E 023°54'0 0.0
2017-Oct-19 12:00N 40°24' E 023°54'0 0.0
2017-Oct-19 11:30N 40°24' E 023°54'0 0.0
2017-Oct-19 11:00N 40°24' E 023°54'0 0.0
2017-Oct-19 10:30N 40°24' E 023°54'0 0.0
2017-Oct-19 10:00N 40°24' E 023°54'0 0.0
2017-Oct-19 09:30N 40°24' E 023°54'0 0.0
2017-Oct-19 09:00N 40°24' E 023°54'0 0.0
2017-Oct-19 07:30N 40°24' E 023°54'0 0.0
2017-Oct-19 07:00N 40°24' E 023°54'0 0.0
2017-Oct-19 06:09N 40°24' E 023°54'0 0.0
2017-Oct-19 06:00N 40°24' E 023°54'0 0.0
2017-Oct-19 05:30N 40°24' E 023°54'0 0.0
2017-Oct-19 05:00N 40°24' E 023°54'0 0.0
2017-Oct-19 04:30N 40°24' E 023°54'0 0.0
2017-Oct-19 04:00N 40°24' E 023°54'0 0.0
2017-Oct-19 03:30N 40°24' E 023°54'0 0.0
2017-Oct-19 03:00N 40°24' E 023°54'0 0.0
2017-Oct-19 02:30N 40°24' E 023°54'0 0.0
2017-Oct-19 02:00N 40°24' E 023°54'0 0.0
2017-Oct-19 01:30N 40°24' E 023°54'0 0.0
2017-Oct-18 23:07N 40°24' E 023°54'0 0.0
2017-Oct-18 22:52N 40°24' E 023°54'0 0.0
2017-Oct-18 22:27N 40°24' E 023°54'0 0.0
2017-Oct-18 21:41N 40°24' E 023°54'0 0.0
2017-Oct-18 21:30N 40°24' E 023°54'0 0.3
2017-Oct-18 21:00N 40°24' E 023°53'3 5.3
2017-Oct-18 20:25N 40°27' E 023°53'3 5.1
2017-Oct-18 19:45N 40°30' E 023°55'0 0.3
2017-Oct-18 19:27N 40°30' E 023°55'0 0.3
2017-Oct-18 18:40N 40°30' E 023°55'0 0.2
2017-Oct-18 18:25N 40°30' E 023°55'15 3.3
2017-Oct-18 13:56N 40°39' E 024°10'3 6.9
2017-Oct-18 13:30N 40°41' E 024°12'3 7.0
2017-Oct-18 13:00N 40°44' E 024°15'4 7.0
2017-Oct-18 12:30N 40°47' E 024°18'4 7.2
2017-Oct-18 12:00N 40°50' E 024°21'2 3.4
2017-Oct-18 11:30N 40°51' E 024°19'0 0.0
2017-Oct-18 11:00N 40°51' E 024°19'0 0.0
2017-Oct-18 10:30N 40°51' E 024°19'0 0.0
2017-Oct-18 10:00N 40°51' E 024°19'0 0.0
2017-Oct-18 09:30N 40°51' E 024°19'0 0.0
2017-Oct-18 09:00N 40°51' E 024°19'0 0.0
2017-Oct-18 08:30N 40°51' E 024°19'0 0.0
2017-Oct-18 08:00N 40°51' E 024°19'0 0.0
2017-Oct-18 07:30N 40°51' E 024°19'0 0.0
2017-Oct-18 07:00N 40°51' E 024°19'0 0.0
2017-Oct-18 06:30N 40°51' E 024°19'0 0.0
2017-Oct-18 06:00N 40°51' E 024°19'0 0.0
2017-Oct-18 05:30N 40°51' E 024°19'0 0.0
2017-Oct-18 05:00N 40°51' E 024°19'0 0.0
2017-Oct-18 04:30N 40°51' E 024°19'0 0.0
2017-Oct-18 04:00N 40°51' E 024°19'0 0.0
2017-Oct-18 03:30N 40°51' E 024°19'0 0.0
2017-Oct-18 03:00N 40°51' E 024°19'0 0.0
2017-Oct-18 02:30N 40°51' E 024°19'0 0.0
2017-Oct-18 02:00N 40°51' E 024°19'0 0.0
2017-Oct-18 01:30N 40°51' E 024°19'2 3.6
2017-Oct-18 01:00N 40°50' E 024°21'4 7.4
2017-Oct-18 00:30N 40°48' E 024°25'1 1.2
2017-Oct-18 00:00N 40°48' E 024°26'1 1.1
2017-Oct-17 23:30N 40°48' E 024°25'0 0.3
2017-Oct-17 23:00N 40°48' E 024°25'0 0.3
2017-Oct-17 22:30N 40°48' E 024°25'0 0.2
2017-Oct-17 22:00N 40°48' E 024°26'0 0.4
2017-Oct-17 21:30N 40°48' E 024°26'1 2.7
2017-Oct-17 21:00N 40°47' E 024°27'3 5.5
2017-Oct-17 20:30N 40°46' E 024°24'3 6.9
2017-Oct-17 20:00N 40°44' E 024°20'3 6.0
2017-Oct-17 19:30N 40°43' E 024°17'3 7.0
2017-Oct-17 19:00N 40°42' E 024°12'4 7.8
2017-Oct-17 18:30N 40°40' E 024°08'1 2.8
2017-Oct-17 18:00N 40°38' E 024°08'0 0.4
2017-Oct-17 17:28N 40°38' E 024°08'1 1.2
2017-Oct-17 17:00N 40°38' E 024°08'1 1.6
2017-Oct-17 16:30N 40°38' E 024°09'2 4.4
2017-Oct-17 16:00N 40°40' E 024°10'4 7.1
2017-Oct-17 15:30N 40°43' E 024°13'4 7.3
2017-Oct-17 15:00N 40°46' E 024°16'4 7.5
2017-Oct-17 14:30N 40°49' E 024°20'2 4.9
2017-Oct-17 14:00N 40°51' E 024°19'0 0.0
2017-Oct-17 13:30N 40°51' E 024°19'0 0.0
2017-Oct-17 13:00N 40°51' E 024°19'0 0.0
2017-Oct-17 12:30N 40°51' E 024°19'0 0.0
2017-Oct-17 12:00N 40°51' E 024°19'0 0.0
2017-Oct-17 11:30N 40°51' E 024°19'0 0.0
2017-Oct-17 11:00N 40°51' E 024°19'0 0.0
2017-Oct-17 10:30N 40°51' E 024°19'0 0.0
2017-Oct-17 10:00N 40°51' E 024°19'0 0.0
2017-Oct-17 09:30N 40°51' E 024°19'0 0.0
2017-Oct-17 09:00N 40°51' E 024°19'0 0.0
2017-Oct-17 08:30N 40°51' E 024°19'0 0.0
2017-Oct-17 08:00N 40°51' E 024°19'0 0.0
2017-Oct-17 07:30N 40°51' E 024°19'0 0.0
2017-Oct-17 07:00N 40°51' E 024°19'0 0.0
2017-Oct-17 06:30N 40°51' E 024°19'0 0.0
2017-Oct-17 06:00N 40°51' E 024°19'0 0.0
2017-Oct-17 05:30N 40°51' E 024°19'0 0.0
2017-Oct-17 05:00N 40°51' E 024°19'0 0.0
2017-Oct-17 04:30N 40°51' E 024°19'0 0.0
2017-Oct-17 04:00N 40°51' E 024°19'0 0.0
2017-Oct-17 03:30N 40°51' E 024°19'0 0.0
2017-Oct-17 03:00N 40°51' E 024°19'0 0.0
2017-Oct-17 02:30N 40°51' E 024°19'0 0.0
2017-Oct-17 02:00N 40°51' E 024°19'0 0.0
2017-Oct-17 01:30N 40°51' E 024°19'0 0.0
2017-Oct-17 01:00N 40°51' E 024°19'0 0.0
2017-Oct-17 00:30N 40°51' E 024°19'0 0.0
2017-Oct-17 00:01N 40°51' E 024°19'0 0.0
2017-Oct-16 23:30N 40°51' E 024°19'0 0.0
2017-Oct-16 23:00N 40°51' E 024°19'0 0.0
2017-Oct-16 22:30N 40°51' E 024°19'0 0.0
2017-Oct-16 22:00N 40°51' E 024°19'3 5.0
2017-Oct-16 21:30N 40°48' E 024°20'4 7.8
2017-Oct-16 21:00N 40°46' E 024°16'4 7.5
2017-Oct-16 20:30N 40°43' E 024°13'4 7.8
2017-Oct-16 20:00N 40°40' E 024°09'1 1.1
2017-Oct-16 19:30N 40°40' E 024°09'0 0.4
2017-Oct-16 18:50N 40°39' E 024°09'0 0.5
2017-Oct-16 18:30N 40°39' E 024°09'0 0.1
2017-Oct-16 17:20N 40°39' E 024°08'0 0.2
2017-Oct-16 17:00N 40°39' E 024°09'2 4.4
2017-Oct-16 16:30N 40°40' E 024°11'3 6.3
2017-Oct-16 15:58N 40°42' E 024°14'3 6.9
2017-Oct-16 15:30N 40°45' E 024°16'3 7.0
2017-Oct-16 15:00N 40°48' E 024°19'3 5.7
2017-Oct-16 14:30N 40°51' E 024°19'1 0.5
2017-Oct-16 13:26N 40°51' E 024°19'0 0.0
2017-Oct-16 12:45N 40°51' E 024°19'0 0.0
2017-Oct-16 12:30N 40°51' E 024°19'0 0.0
2017-Oct-16 12:00N 40°51' E 024°19'0 0.0
2017-Oct-16 11:07N 40°51' E 024°19'0 0.0
2017-Oct-16 10:53N 40°51' E 024°19'0 0.0
2017-Oct-16 10:30N 40°51' E 024°19'0 0.0
2017-Oct-16 09:38N 40°51' E 024°19'0 0.0
2017-Oct-16 09:25N 40°51' E 024°19'0 0.0
2017-Oct-16 08:40N 40°51' E 024°19'0 0.0
2017-Oct-16 08:30N 40°51' E 024°19'0 0.0
2017-Oct-16 08:00N 40°51' E 024°19'0 0.0
2017-Oct-16 04:50N 40°51' E 024°19'0 0.0
2017-Oct-16 04:30N 40°51' E 024°19'0 0.0
2017-Oct-16 03:59N 40°51' E 024°19'0 0.0
2017-Oct-16 03:30N 40°51' E 024°19'0 0.0
2017-Oct-16 03:00N 40°51' E 024°19'0 0.0
2017-Oct-16 02:29N 40°51' E 024°19'0 0.0
2017-Oct-16 02:00N 40°51' E 024°19'0 0.0
2017-Oct-16 01:28N 40°51' E 024°19'0 0.0
2017-Oct-16 01:00N 40°51' E 024°19'0 0.0
2017-Oct-16 00:30N 40°51' E 024°19'0 0.0
2017-Oct-16 00:00N 40°51' E 024°19'0 0.0
2017-Oct-15 23:25N 40°51' E 024°19'0 0.0
2017-Oct-15 22:10N 40°51' E 024°19'0 0.0
2017-Oct-15 22:00N 40°51' E 024°19'2 3.8
2017-Oct-15 21:30N 40°50' E 024°21'4 7.5
2017-Oct-15 21:00N 40°47' E 024°17'4 7.8
2017-Oct-15 20:30N 40°44' E 024°14'3 6.6
2017-Oct-15 19:59N 40°41' E 024°11'0 0.4
2017-Oct-15 19:30N 40°41' E 024°11'0 0.3
2017-Oct-15 18:58N 40°41' E 024°11'0 0.6
2017-Oct-15 18:30N 40°41' E 024°11'0 0.5
2017-Oct-15 17:59N 40°41' E 024°10'0 0.3
2017-Oct-15 17:30N 40°41' E 024°11'0 0.2
2017-Oct-15 16:57N 40°41' E 024°11'0 0.7
2017-Oct-15 16:30N 40°41' E 024°11'2 4.8
2017-Oct-15 16:00N 40°43' E 024°11'3 7.0
2017-Oct-15 15:30N 40°45' E 024°15'4 7.1
2017-Oct-15 15:00N 40°47' E 024°18'4 3.7
2017-Oct-15 14:00N 40°51' E 024°19'0 0.0
2017-Oct-15 13:30N 40°51' E 024°19'0 0.0
2017-Oct-15 13:00N 40°51' E 024°19'0 0.0
2017-Oct-15 12:30N 40°51' E 024°19'0 0.0
2017-Oct-15 12:00N 40°51' E 024°19'0 0.0
2017-Oct-15 11:30N 40°51' E 024°19'0 0.0
2017-Oct-15 11:00N 40°51' E 024°19'0 0.0
2017-Oct-15 10:30N 40°51' E 024°19'0 0.0
2017-Oct-15 10:00N 40°51' E 024°19'0 0.0
2017-Oct-15 09:30N 40°51' E 024°19'0 0.0
2017-Oct-15 09:00N 40°51' E 024°19'0 0.0
2017-Oct-15 08:30N 40°51' E 024°19'0 0.0
2017-Oct-15 08:00N 40°51' E 024°19'0 0.0
2017-Oct-15 07:30N 40°51' E 024°19'0 0.0
2017-Oct-15 07:00N 40°51' E 024°19'0 0.0
2017-Oct-15 06:30N 40°51' E 024°19'0 0.0
2017-Oct-15 06:00N 40°51' E 024°19'0 0.0
2017-Oct-15 05:30N 40°51' E 024°19'0 0.0
2017-Oct-15 05:00N 40°51' E 024°19'0 0.0
2017-Oct-15 04:30N 40°51' E 024°19'0 0.0
2017-Oct-15 04:00N 40°51' E 024°19'0 0.0
2017-Oct-15 03:30N 40°51' E 024°19'0 0.0
2017-Oct-15 03:00N 40°51' E 024°19'0 0.0
2017-Oct-15 02:30N 40°51' E 024°19'0 0.0
2017-Oct-15 02:00N 40°51' E 024°19'0 0.0
2017-Oct-15 01:30N 40°51' E 024°19'0 0.0
2017-Oct-15 01:00N 40°51' E 024°19'0 0.0
2017-Oct-15 00:30N 40°51' E 024°19'0 0.0
2017-Oct-15 00:00N 40°51' E 024°19'0 0.0
2017-Oct-14 23:30N 40°51' E 024°19'0 0.0
2017-Oct-14 23:00N 40°51' E 024°19'0 0.0
2017-Oct-14 22:30N 40°51' E 024°19'0 0.0
2017-Oct-14 22:00N 40°51' E 024°19'0 0.0
2017-Oct-14 21:30N 40°51' E 024°19'0 0.0
2017-Oct-14 21:00N 40°51' E 024°19'0 0.0
2017-Oct-14 20:30N 40°51' E 024°19'0 0.0
2017-Oct-14 20:00N 40°51' E 024°19'0 0.0
2017-Oct-14 19:30N 40°51' E 024°19'0 0.0
2017-Oct-14 19:00N 40°51' E 024°19'0 0.0
2017-Oct-14 18:30N 40°51' E 024°19'0 0.0
2017-Oct-14 18:00N 40°51' E 024°19'0 0.0
2017-Oct-14 17:30N 40°51' E 024°19'0 0.0
2017-Oct-14 17:00N 40°51' E 024°19'0 0.0
2017-Oct-14 16:30N 40°51' E 024°19'0 0.0
2017-Oct-14 16:00N 40°51' E 024°19'0 0.0
2017-Oct-14 15:30N 40°51' E 024°19'0 0.0
2017-Oct-14 15:00N 40°51' E 024°19'0 0.0
2017-Oct-14 14:30N 40°51' E 024°19'0 0.0
2017-Oct-14 14:00N 40°51' E 024°19'0 0.0
2017-Oct-14 13:30N 40°51' E 024°19'0 0.0
2017-Oct-14 13:00N 40°51' E 024°19'0 0.0
2017-Oct-14 12:30N 40°51' E 024°19'0 0.0
2017-Oct-14 12:00N 40°51' E 024°19'0 0.0
2017-Oct-14 11:30N 40°51' E 024°19'0 0.0
2017-Oct-14 11:00N 40°51' E 024°19'0 0.0
2017-Oct-14 10:30N 40°51' E 024°19'0 0.0
2017-Oct-14 10:00N 40°51' E 024°19'0 0.0
2017-Oct-14 09:30N 40°51' E 024°19'0 0.0
2017-Oct-14 09:00N 40°51' E 024°19'0 0.0
2017-Oct-14 08:30N 40°51' E 024°19'0 0.0
2017-Oct-14 08:00N 40°51' E 024°19'0 0.0
2017-Oct-14 07:30N 40°51' E 024°19'0 0.0
2017-Oct-14 07:00N 40°51' E 024°19'0 0.0
2017-Oct-14 06:30N 40°51' E 024°19'0 0.0
2017-Oct-14 06:00N 40°51' E 024°19'0 0.0
2017-Oct-14 05:30N 40°51' E 024°19'0 0.0
2017-Oct-14 05:00N 40°51' E 024°19'0 0.0
2017-Oct-14 04:30N 40°51' E 024°19'0 0.0
2017-Oct-14 04:00N 40°51' E 024°19'0 0.0
2017-Oct-14 03:30N 40°51' E 024°19'0 0.0
2017-Oct-14 03:00N 40°51' E 024°19'0 0.0
2017-Oct-14 02:30N 40°51' E 024°19'0 0.0
2017-Oct-14 02:00N 40°51' E 024°19'0 0.0
2017-Oct-14 01:30N 40°51' E 024°19'0 0.0
2017-Oct-14 01:00N 40°51' E 024°19'0 0.0
2017-Oct-14 00:30N 40°51' E 024°19'0 0.0
2017-Oct-14 00:00N 40°51' E 024°19'0 0.0
2017-Oct-13 23:30N 40°51' E 024°19'0 0.0
2017-Oct-13 23:00N 40°51' E 024°19'0 0.0
2017-Oct-13 22:30N 40°51' E 024°19'0 0.0
2017-Oct-13 22:00N 40°51' E 024°19'0 0.0
2017-Oct-13 21:30N 40°51' E 024°19'0 0.1
2017-Oct-13 21:00N 40°51' E 024°19'2 4.5
2017-Oct-13 20:29N 40°49' E 024°20'4 8.1
2017-Oct-13 20:00N 40°46' E 024°16'4 8.1
2017-Oct-13 19:30N 40°44' E 024°12'0 0.5
2017-Oct-13 19:00N 40°44' E 024°11'0 0.3
2017-Oct-13 18:30N 40°44' E 024°11'0 0.8
2017-Oct-13 18:00N 40°43' E 024°11'0 0.7
2017-Oct-13 17:30N 40°43' E 024°11'0 0.5
2017-Oct-13 17:00N 40°43' E 024°11'0 0.5
2017-Oct-13 16:30N 40°43' E 024°11'2 2.9
2017-Oct-13 15:47N 40°45' E 024°13'2 6.8
2017-Oct-13 15:30N 40°46' E 024°15'3 6.7
2017-Oct-13 15:00N 40°48' E 024°19'3 5.1
2017-Oct-13 14:30N 40°51' E 024°19'1 1.0
2017-Oct-13 14:00N 40°51' E 024°19'0 0.0
2017-Oct-13 13:30N 40°51' E 024°19'0 0.0
2017-Oct-13 13:00N 40°51' E 024°19'0 0.0
2017-Oct-13 12:30N 40°51' E 024°19'0 0.0
2017-Oct-13 12:00N 40°51' E 024°19'0 0.0
2017-Oct-13 11:30N 40°51' E 024°19'0 0.0
2017-Oct-13 11:00N 40°51' E 024°19'0 0.0
2017-Oct-13 10:30N 40°51' E 024°19'0 0.0
2017-Oct-13 10:00N 40°51' E 024°19'0 0.0
2017-Oct-13 09:30N 40°51' E 024°19'0 0.0
2017-Oct-13 09:00N 40°51' E 024°19'0 0.0
2017-Oct-13 08:30N 40°51' E 024°19'0 0.0
2017-Oct-13 08:00N 40°51' E 024°19'0 0.0
2017-Oct-13 07:30N 40°51' E 024°19'0 0.0
2017-Oct-13 07:00N 40°51' E 024°19'0 0.0
2017-Oct-13 06:30N 40°51' E 024°19'0 0.0
2017-Oct-13 06:00N 40°51' E 024°19'0 0.0
2017-Oct-13 05:30N 40°51' E 024°19'0 0.0
2017-Oct-13 05:00N 40°51' E 024°19'0 0.0
2017-Oct-13 04:30N 40°51' E 024°19'0 0.0
2017-Oct-13 04:00N 40°51' E 024°19'0 0.0
2017-Oct-13 03:30N 40°51' E 024°19'0 0.0
2017-Oct-13 03:00N 40°51' E 024°19'0 0.0
2017-Oct-13 02:30N 40°51' E 024°19'0 0.0
2017-Oct-13 02:00N 40°51' E 024°19'0 0.0
2017-Oct-13 01:30N 40°51' E 024°19'0 0.0
2017-Oct-13 01:00N 40°51' E 024°19'0 0.0
2017-Oct-13 00:30N 40°51' E 024°19'0 0.0
2017-Oct-13 00:00N 40°51' E 024°19'0 0.0
2017-Oct-12 23:30N 40°51' E 024°19'0 0.0
2017-Oct-12 23:00N 40°51' E 024°19'0 0.0
2017-Oct-12 22:30N 40°51' E 024°19'0 0.9
2017-Oct-12 21:59N 40°51' E 024°19'3 5.5
2017-Oct-12 21:30N 40°48' E 024°19'4 8.0
2017-Oct-12 21:00N 40°46' E 024°15'4 7.7
2017-Oct-12 20:29N 40°43' E 024°11'3 5.6
2017-Oct-12 20:00N 40°41' E 024°08'0 0.2
2017-Oct-12 19:30N 40°41' E 024°08'0 0.4
2017-Oct-12 19:00N 40°41' E 024°08'0 0.5
2017-Oct-12 18:30N 40°41' E 024°08'0 0.7
2017-Oct-12 17:57N 40°41' E 024°09'0 0.2
2017-Oct-12 17:29N 40°41' E 024°08'1 1.5
2017-Oct-12 17:00N 40°42' E 024°08'2 4.6
2017-Oct-12 16:30N 40°44' E 024°09'2 4.0
2017-Oct-12 16:00N 40°44' E 024°12'3 6.8
2017-Oct-12 15:30N 40°46' E 024°16'3 6.6
2017-Oct-12 15:00N 40°48' E 024°19'2 4.8
2017-Oct-12 14:30N 40°51' E 024°19'0 0.7
2017-Oct-12 14:00N 40°51' E 024°19'0 0.0
2017-Oct-12 13:30N 40°51' E 024°19'0 0.0
2017-Oct-12 13:00N 40°51' E 024°19'0 0.0
2017-Oct-12 12:30N 40°51' E 024°19'0 0.0
2017-Oct-12 12:00N 40°51' E 024°19'0 0.0
2017-Oct-12 11:30N 40°51' E 024°19'0 0.0
2017-Oct-12 11:00N 40°51' E 024°19'0 0.0
2017-Oct-12 10:30N 40°51' E 024°19'0 0.0
2017-Oct-12 10:00N 40°51' E 024°19'0 0.0
2017-Oct-12 09:30N 40°51' E 024°19'0 0.0
2017-Oct-12 09:00N 40°51' E 024°19'0 0.0
2017-Oct-12 08:30N 40°51' E 024°19'0 0.0
2017-Oct-12 08:00N 40°51' E 024°19'0 0.0
2017-Oct-12 07:30N 40°51' E 024°19'0 0.0
2017-Oct-12 07:00N 40°51' E 024°19'0 0.0
2017-Oct-12 06:30N 40°51' E 024°19'0 0.0
2017-Oct-12 06:00N 40°51' E 024°19'0 0.0
2017-Oct-12 05:30N 40°51' E 024°19'0 0.0
2017-Oct-12 05:00N 40°51' E 024°19'0 0.0
2017-Oct-12 04:30N 40°51' E 024°19'0 0.0
2017-Oct-12 04:00N 40°51' E 024°19'0 0.0
2017-Oct-12 03:30N 40°51' E 024°19'0 0.0
2017-Oct-12 03:00N 40°51' E 024°19'0 0.0
2017-Oct-12 02:30N 40°51' E 024°19'0 0.0
2017-Oct-12 02:00N 40°51' E 024°19'0 0.0
2017-Oct-12 01:30N 40°51' E 024°19'0 0.0
2017-Oct-12 01:00N 40°51' E 024°19'0 0.0
2017-Oct-12 00:30N 40°51' E 024°19'0 0.2
2017-Oct-12 00:00N 40°51' E 024°19'2 5.0
2017-Oct-11 23:30N 40°48' E 024°19'4 7.5
2017-Oct-11 23:00N 40°46' E 024°15'4 7.5
2017-Oct-11 22:30N 40°44' E 024°12'4 7.0
2017-Oct-11 22:00N 40°41' E 024°08'3 5.2
2017-Oct-11 21:29N 40°39' E 024°06'0 0.3
2017-Oct-11 20:57N 40°39' E 024°06'0 0.3
2017-Oct-11 20:30N 40°40' E 024°06'0 0.4
2017-Oct-11 19:55N 40°40' E 024°06'0 0.2
2017-Oct-11 18:36N 40°40' E 024°06'0 0.3
2017-Oct-11 18:14N 40°40' E 024°06'4 5.0
2017-Oct-11 17:22N 40°42' E 024°11'2 4.5
2017-Oct-11 16:58N 40°42' E 024°13'10 0.6
2017-Oct-11 00:00N 40°51' E 024°19'3 6.9
2017-Oct-10 23:30N 40°49' E 024°23'2 4.9
2017-Oct-10 23:00N 40°46' E 024°23'3 5.8
2017-Oct-10 22:30N 40°44' E 024°22'1 1.5
2017-Oct-10 22:00N 40°43' E 024°21'1 1.9
2017-Oct-10 21:30N 40°42' E 024°20'1 2.4
2017-Oct-10 21:00N 40°43' E 024°19'4 7.3
2017-Oct-10 20:30N 40°47' E 024°20'3 5.6
2017-Oct-10 20:00N 40°45' E 024°17'2 4.8
2017-Oct-10 19:30N 40°43' E 024°15'0 0.3
2017-Oct-10 19:00N 40°43' E 024°15'0 0.2
2017-Oct-10 18:30N 40°43' E 024°15'0 0.3
2017-Oct-10 18:00N 40°43' E 024°15'0 0.6
2017-Oct-10 17:30N 40°43' E 024°15'0 0.4
2017-Oct-10 17:00N 40°43' E 024°15'0 0.1
2017-Oct-10 16:30N 40°43' E 024°15'0 0.4
2017-Oct-10 16:00N 40°43' E 024°15'3 6.0
2017-Oct-10 15:30N 40°45' E 024°18'4 7.1
2017-Oct-10 15:00N 40°48' E 024°20'3 3.0
2017-Oct-10 14:00N 40°51' E 024°19'0 0.0
2017-Oct-10 13:30N 40°51' E 024°19'0 0.0
2017-Oct-10 13:00N 40°51' E 024°19'0 0.0
2017-Oct-10 12:30N 40°51' E 024°19'0 0.0
2017-Oct-10 12:00N 40°51' E 024°19'  

Dump ship's entire track history